createdAt,value
2018-07-26T00:00:28.636Z,16.1
2018-07-26T00:01:18.707Z,16.1
2018-07-26T00:02:08.772Z,16.1
2018-07-26T00:02:58.570Z,16.1
2018-07-26T00:03:48.730Z,16.1
2018-07-26T00:04:38.407Z,16.1
2018-07-26T00:05:29.040Z,16.1
2018-07-26T00:06:18.806Z,16.1
2018-07-26T00:07:08.887Z,16.1
2018-07-26T00:07:58.957Z,16.1
2018-07-26T00:08:49.298Z,16.1
2018-07-26T00:09:39.392Z,16.1
2018-07-26T00:10:29.165Z,16.1
2018-07-26T00:11:19.494Z,16.1
2018-07-26T00:12:09.292Z,16.1
2018-07-26T00:12:58.774Z,16.1
2018-07-26T00:13:49.662Z,16.1
2018-07-26T00:14:39.723Z,16.1
2018-07-26T00:15:29.821Z,16.1
2018-07-26T00:16:19.862Z,16.1
2018-07-26T00:17:09.657Z,16.1
2018-07-26T00:17:59.722Z,16.1
2018-07-26T00:18:49.796Z,16.1
2018-07-26T00:19:40.110Z,16.1
2018-07-26T00:20:29.642Z,16.1
2018-07-26T00:21:19.405Z,16.1
2018-07-26T00:22:10.299Z,16.1
2018-07-26T00:23:00.103Z,16.1
2018-07-26T00:23:50.157Z,16.1
2018-07-26T00:24:40.512Z,16.1
2018-07-26T00:25:30.557Z,16.1
2018-07-26T00:26:20.652Z,16.1
2018-07-26T00:27:10.443Z,16.1
2018-07-26T00:28:00.479Z,16.1
2018-07-26T00:28:50.273Z,16.1
2018-07-26T00:29:40.606Z,16.1
2018-07-26T00:30:30.961Z,16.1
2018-07-26T00:31:20.746Z,16.1
2018-07-26T00:32:11.111Z,16.2
2018-07-26T00:33:00.859Z,16.2
2018-07-26T00:33:50.928Z,16.2
2018-07-26T00:34:41.280Z,16.2
2018-07-26T00:35:31.324Z,16.2
2018-07-26T00:36:21.386Z,16.3
2018-07-26T00:37:11.468Z,16.3
2018-07-26T00:38:01.527Z,16.3
2018-07-26T00:38:51.322Z,16.3
2018-07-26T00:39:41.362Z,16.3
2018-07-26T00:40:31.723Z,16.3
2018-07-26T00:41:22.002Z,16.3
2018-07-26T00:42:11.596Z,16.3
2018-07-26T00:43:01.376Z,16.3
2018-07-26T00:43:51.972Z,16.3
2018-07-26T00:44:41.493Z,16.4
2018-07-26T00:45:32.095Z,16.4
2018-07-26T00:46:22.204Z,16.4
2018-07-26T00:47:12.220Z,16.4
2018-07-26T00:48:02.318Z,16.4
2018-07-26T00:48:52.791Z,16.4
2018-07-26T00:49:42.156Z,16.4
2018-07-26T00:50:32.494Z,16.5
2018-07-26T00:51:22.289Z,16.4
2018-07-26T00:52:12.628Z,16.5
2018-07-26T00:53:02.416Z,16.5
2018-07-26T00:53:52.477Z,16.5
2018-07-26T00:54:42.814Z,16.5
2018-07-26T00:55:32.854Z,16.6
2018-07-26T00:56:22.924Z,16.6
2018-07-26T00:57:12.734Z,16.6
2018-07-26T00:58:03.056Z,16.6
2018-07-26T00:58:53.131Z,16.6
2018-07-26T00:59:42.923Z,16.6
2018-07-26T01:00:33.270Z,16.6
2018-07-26T01:01:22.760Z,16.6
2018-07-26T01:02:12.845Z,16.6
2018-07-26T01:03:03.446Z,16.6
2018-07-26T01:03:52.671Z,16.6
2018-07-26T01:04:43.557Z,16.6
2018-07-26T01:05:33.103Z,16.7
2018-07-26T01:06:23.718Z,16.7
2018-07-26T01:07:13.754Z,16.7
2018-07-26T01:08:03.870Z,16.7
2018-07-26T01:08:53.603Z,16.7
2018-07-26T01:09:43.905Z,16.8
2018-07-26T01:10:33.763Z,16.8
2018-07-26T01:11:24.107Z,16.8
2018-07-26T01:12:14.159Z,16.8
2018-07-26T01:13:03.682Z,16.8
2018-07-26T01:13:54.330Z,16.8
2018-07-26T01:14:44.350Z,16.8
2018-07-26T01:15:34.140Z,16.8
2018-07-26T01:16:24.188Z,16.8
2018-07-26T01:17:14.563Z,16.8
2018-07-26T01:18:04.333Z,16.8
2018-07-26T01:18:54.374Z,16.8
2018-07-26T01:19:44.725Z,16.9
2018-07-26T01:20:34.821Z,16.9
2018-07-26T01:21:24.866Z,16.9
2018-07-26T01:22:14.911Z,16.9
2018-07-26T01:23:05.003Z,16.9
2018-07-26T01:23:55.070Z,16.9
2018-07-26T01:24:45.139Z,16.9
2018-07-26T01:25:35.178Z,16.9
2018-07-26T01:26:24.961Z,16.9
2018-07-26T01:27:15.356Z,16.9
2018-07-26T01:28:05.080Z,16.9
2018-07-26T01:28:55.433Z,16.9
2018-07-26T01:31:25.340Z,16.9
2018-07-26T01:34:45.660Z,17.1
2018-07-26T01:37:16.081Z,17.1
2018-07-26T01:38:06.130Z,17.1
2018-07-26T01:38:56.198Z,17.1
2018-07-26T01:39:45.998Z,17.1
2018-07-26T01:40:36.040Z,17.1
2018-07-26T01:41:25.555Z,17.1
2018-07-26T01:42:16.270Z,17.1
2018-07-26T01:43:06.509Z,17.1
2018-07-26T01:43:56.589Z,17.1
2018-07-26T01:44:46.688Z,17.1
2018-07-26T01:45:36.723Z,17.1
2018-07-26T01:46:26.766Z,17.1
2018-07-26T01:47:16.841Z,17.1
2018-07-26T01:48:06.655Z,17.1
2018-07-26T01:48:57.019Z,17.1
2018-07-26T01:49:46.763Z,17.1
2018-07-26T01:50:37.155Z,17.1
2018-07-26T01:51:27.161Z,17.1
2018-07-26T01:52:16.930Z,17.1
2018-07-26T01:53:07.322Z,17.1
2018-07-26T01:53:57.067Z,17.1
2018-07-26T01:54:46.856Z,17.2
2018-07-26T01:55:37.471Z,17.2
2018-07-26T01:56:27.549Z,17.1
2018-07-26T01:57:17.317Z,17.2
2018-07-26T01:58:07.680Z,17.2
2018-07-26T01:58:57.474Z,17.2
2018-07-26T01:59:47.784Z,17.2
2018-07-26T02:00:37.858Z,17.2
2018-07-26T02:01:27.912Z,17.2
2018-07-26T02:02:17.985Z,17.2
2018-07-26T02:03:08.072Z,17.2
2018-07-26T02:03:58.111Z,17.2
2018-07-26T02:04:48.188Z,17.2
2018-07-26T02:05:37.954Z,17.2
2018-07-26T02:06:27.761Z,17.3
2018-07-26T02:07:18.380Z,17.3
2018-07-26T02:08:08.458Z,17.2
2018-07-26T02:08:57.965Z,17.2
2018-07-26T02:09:48.302Z,17.3
2018-07-26T02:10:38.093Z,17.2
2018-07-26T02:11:28.159Z,17.3
2018-07-26T02:12:18.190Z,17.2
2018-07-26T02:13:08.841Z,17.2
2018-07-26T02:13:58.903Z,17.2
2018-07-26T02:14:48.676Z,17.2
2018-07-26T02:15:38.732Z,17.2
2018-07-26T02:16:28.794Z,17.2
2018-07-26T02:17:19.125Z,17.2
2018-07-26T02:18:09.217Z,17.2
2018-07-26T02:18:59.284Z,17.1
2018-07-26T02:19:49.334Z,17.1
2018-07-26T02:20:39.414Z,17.1
2018-07-26T02:21:29.470Z,17.1
2018-07-26T02:22:19.261Z,17.1
2018-07-26T02:23:09.316Z,17.1
2018-07-26T02:23:59.650Z,17.1
2018-07-26T02:24:49.786Z,17.1
2018-07-26T02:25:39.530Z,17.1
2018-07-26T02:26:29.847Z,17.1
2018-07-26T02:27:19.911Z,17.1
2018-07-26T02:28:09.976Z,17.1
2018-07-26T02:28:59.749Z,17.1
2018-07-26T02:29:49.842Z,17.1
2018-07-26T02:30:39.882Z,17.1
2018-07-26T02:31:29.965Z,17.1
2018-07-26T02:40:40.961Z,16.9
2018-07-26T02:41:31.008Z,16.9
2018-07-26T02:42:21.106Z,16.9
2018-07-26T02:43:11.116Z,16.9
2018-07-26T02:44:00.626Z,16.9
2018-07-26T02:44:51.282Z,16.9
2018-07-26T02:45:41.041Z,16.9
2018-07-26T02:46:31.377Z,16.9
2018-07-26T02:47:21.170Z,16.9
2018-07-26T02:48:11.240Z,16.9
2018-07-26T02:49:01.045Z,16.9
2018-07-26T02:49:51.707Z,16.8
2018-07-26T02:50:41.713Z,16.8
2018-07-26T02:51:31.491Z,16.8
2018-07-26T02:52:21.566Z,16.8
2018-07-26T02:53:11.914Z,16.8
2018-07-26T02:54:01.400Z,16.8
2018-07-26T02:54:52.014Z,16.8
2018-07-26T02:55:42.106Z,16.8
2018-07-26T02:56:31.886Z,16.7
2018-07-26T02:57:21.385Z,16.7
2018-07-26T02:58:11.722Z,16.6
2018-07-26T02:59:02.122Z,16.6
2018-07-26T02:59:52.419Z,16.6
2018-07-26T03:00:42.208Z,16.6
2018-07-26T03:01:32.241Z,16.6
2018-07-26T03:02:22.637Z,16.6
2018-07-26T03:03:12.682Z,16.5
2018-07-26T03:04:02.449Z,16.5
2018-07-26T03:04:52.786Z,16.5
2018-07-26T03:05:42.384Z,16.4
2018-07-26T03:06:32.644Z,16.4
2018-07-26T03:07:22.969Z,16.4
2018-07-26T03:08:12.790Z,16.4
2018-07-26T03:09:03.130Z,16.4
2018-07-26T03:09:53.184Z,16.3
2018-07-26T03:10:42.959Z,16.3
2018-07-26T03:11:33.043Z,16.3
2018-07-26T03:12:23.073Z,16.3
2018-07-26T03:13:13.511Z,16.2
2018-07-26T03:14:03.245Z,16.2
2018-07-26T03:14:53.552Z,16.2
2018-07-26T03:15:43.435Z,16.1
2018-07-26T03:16:33.734Z,16.1
2018-07-26T03:17:23.738Z,16.1
2018-07-26T03:18:13.826Z,16.1
2018-07-26T03:19:03.611Z,16.1
2018-07-26T03:19:53.956Z,16.1
2018-07-26T03:20:43.447Z,16
2018-07-26T03:21:34.131Z,15.9
2018-07-26T03:22:23.887Z,15.9
2018-07-26T03:23:13.941Z,15.9
2018-07-26T03:24:04.001Z,15.9
2018-07-26T03:24:54.069Z,15.9
2018-07-26T03:25:44.515Z,15.9
2018-07-26T03:26:34.172Z,15.8
2018-07-26T03:27:24.530Z,15.8
2018-07-26T03:28:14.008Z,15.8
2018-07-26T03:29:04.090Z,15.8
2018-07-26T03:29:54.714Z,15.8
2018-07-26T03:30:44.830Z,15.8
2018-07-26T03:31:34.261Z,15.7
2018-07-26T03:32:24.050Z,15.7
2018-07-26T03:33:14.972Z,15.7
2018-07-26T03:34:05.024Z,15.6
2018-07-26T03:34:55.085Z,15.6
2018-07-26T03:35:44.882Z,15.6
2018-07-26T03:36:35.268Z,15.6
2018-07-26T03:37:25.257Z,15.6
2018-07-26T03:38:15.330Z,15.6
2018-07-26T03:39:05.396Z,15.6
2018-07-26T03:39:55.474Z,15.6
2018-07-26T03:40:45.517Z,15.6
2018-07-26T03:41:35.667Z,15.6
2018-07-26T03:42:25.659Z,15.6
2018-07-26T03:43:15.715Z,15.5
2018-07-26T03:44:05.776Z,15.5
2018-07-26T03:44:55.850Z,15.5
2018-07-26T03:45:45.890Z,15.5
2018-07-26T03:46:35.978Z,15.5
2018-07-26T03:47:25.745Z,15.5
2018-07-26T03:48:15.540Z,15.5
2018-07-26T03:49:05.592Z,15.5
2018-07-26T03:49:56.225Z,15.5
2018-07-26T03:50:46.124Z,15.4
2018-07-26T03:51:36.111Z,15.4
2018-07-26T03:52:26.431Z,15.5
2018-07-26T03:53:16.212Z,15.5
2018-07-26T03:54:06.549Z,15.5
2018-07-26T03:54:56.617Z,15.5
2018-07-26T03:55:46.682Z,15.5
2018-07-26T03:56:36.467Z,15.5
2018-07-26T03:57:26.784Z,15.5
2018-07-26T03:58:16.863Z,15.5
2018-07-26T03:59:06.930Z,15.5
2018-07-26T03:59:56.745Z,15.5
2018-07-26T04:00:47.058Z,15.5
2018-07-26T04:01:37.118Z,15.5
2018-07-26T04:02:27.182Z,15.5
2018-07-26T04:03:17.595Z,15.6
2018-07-26T04:04:07.333Z,15.6
2018-07-26T04:04:57.376Z,15.6
2018-07-26T04:05:47.445Z,15.6
2018-07-26T04:06:37.512Z,15.6
2018-07-26T04:07:27.013Z,15.6
2018-07-26T04:08:17.634Z,15.6
2018-07-26T04:09:07.690Z,15.6
2018-07-26T04:09:57.771Z,15.6
2018-07-26T04:10:47.562Z,15.6
2018-07-26T04:11:37.875Z,15.6
2018-07-26T04:12:27.674Z,15.7
2018-07-26T04:13:18.019Z,15.7
2018-07-26T04:14:08.420Z,15.7
2018-07-26T04:14:57.586Z,15.7
2018-07-26T04:15:48.190Z,15.8
2018-07-26T04:16:38.005Z,15.8
2018-07-26T04:17:27.801Z,15.8
2018-07-26T04:18:18.123Z,15.8
2018-07-26T04:19:08.454Z,15.8
2018-07-26T04:19:58.719Z,15.9
2018-07-26T04:20:48.618Z,15.9
2018-07-26T04:21:37.814Z,15.9
2018-07-26T04:22:28.694Z,15.9
2018-07-26T04:23:18.759Z,16
2018-07-26T04:24:08.849Z,16.1
2018-07-26T04:24:58.607Z,16.1
2018-07-26T04:25:48.692Z,16.1
2018-07-26T04:26:38.757Z,16.2
2018-07-26T04:27:29.101Z,16.3
2018-07-26T04:28:18.888Z,16.3
2018-07-26T04:29:09.240Z,16.4
2018-07-26T04:29:58.993Z,16.4
2018-07-26T04:30:49.097Z,16.5
2018-07-26T04:31:39.434Z,16.6
2018-07-26T04:32:29.485Z,16.7
2018-07-26T04:33:19.581Z,16.8
2018-07-26T04:34:09.637Z,16.8
2018-07-26T04:34:59.674Z,16.9
2018-07-26T04:35:49.464Z,16.9
2018-07-26T04:37:29.856Z,17.1
2018-07-26T04:38:19.921Z,17.2
2018-07-26T04:39:10.006Z,17.3
2018-07-26T04:39:59.782Z,17.3
2018-07-26T04:40:50.126Z,17.4
2018-07-26T04:41:40.180Z,17.5
2018-07-26T04:42:30.255Z,17.6
2018-07-26T04:43:20.342Z,17.7
2018-07-26T04:44:10.386Z,17.8
2018-07-26T04:45:00.436Z,17.8
2018-07-26T04:45:50.220Z,17.9
2018-07-26T04:46:40.564Z,18
2018-07-26T04:47:30.146Z,18.1
2018-07-26T04:48:20.697Z,18.2
2018-07-26T04:49:10.465Z,18.3
2018-07-26T04:50:00.811Z,18.4
2018-07-26T04:50:50.872Z,18.5
2018-07-26T04:51:40.934Z,18.6
2018-07-26T04:52:30.753Z,18.8
2018-07-26T04:53:21.072Z,18.9
2018-07-26T04:54:11.214Z,19
2018-07-26T04:55:01.197Z,19.1
2018-07-26T04:55:51.258Z,19.3
2018-07-26T04:56:41.336Z,19.4
2018-07-26T04:57:31.419Z,19.5
2018-07-26T04:58:20.893Z,19.7
2018-07-26T04:59:11.513Z,19.8
2018-07-26T05:00:01.315Z,20
2018-07-26T05:00:51.661Z,20.1
2018-07-26T05:01:41.691Z,20.3
2018-07-26T05:02:31.490Z,20.4
2018-07-26T05:03:21.555Z,20.6
2018-07-26T05:04:11.608Z,20.8
2018-07-26T05:05:01.990Z,20.9
2018-07-26T05:05:52.027Z,21.2
2018-07-26T05:06:41.885Z,21.3
2018-07-26T05:07:31.593Z,21.5
2018-07-26T05:08:21.957Z,21.7
2018-07-26T05:09:12.025Z,21.9
2018-07-26T05:10:02.358Z,22.1
2018-07-26T05:10:52.413Z,22.3
2018-07-26T05:11:42.529Z,22.5
2018-07-26T05:12:32.612Z,22.8
2018-07-26T05:13:22.657Z,23
2018-07-26T05:14:12.398Z,23.2
2018-07-26T05:15:17.104Z,23.4
2018-07-26T05:15:52.529Z,23.8
2018-07-26T05:16:42.859Z,23.9
2018-07-26T05:17:32.925Z,24.2
2018-07-26T05:18:22.850Z,24.4
2018-07-26T05:19:13.729Z,24.7
2018-07-26T05:20:02.851Z,24.9
2018-07-26T05:20:52.619Z,25.2
2018-07-26T05:21:43.238Z,25.4
2018-07-26T05:22:32.473Z,25.8
2018-07-26T05:23:23.350Z,26
2018-07-26T05:24:13.424Z,26.3
2018-07-26T05:25:03.492Z,26.6
2018-07-26T05:25:53.553Z,26.8
2018-07-26T05:26:43.348Z,27.1
2018-07-26T05:27:33.682Z,27.4
2018-07-26T05:28:23.475Z,27.6
2018-07-26T05:29:13.818Z,27.9
2018-07-26T05:30:03.874Z,28.2
2018-07-26T05:30:53.646Z,28.5
2018-07-26T05:31:44.051Z,28.8
2018-07-26T05:32:34.075Z,29.1
2018-07-26T05:33:23.865Z,29.4
2018-07-26T05:34:14.194Z,29.7
2018-07-26T05:35:04.274Z,29.9
2018-07-26T05:35:54.044Z,30.3
2018-07-26T05:36:44.405Z,30.6
2018-07-26T05:37:34.181Z,30.9
2018-07-26T05:38:24.529Z,31.2
2018-07-26T05:39:14.582Z,31.5
2018-07-26T05:40:04.651Z,31.8
2018-07-26T05:40:54.702Z,32.1
2018-07-26T05:41:44.788Z,32.3
2018-07-26T05:42:34.555Z,32.6
2018-07-26T05:43:24.933Z,32.9
2018-07-26T05:44:14.965Z,33.2
2018-07-26T05:45:04.571Z,33.5
2018-07-26T05:45:55.091Z,33.8
2018-07-26T05:46:45.199Z,34.1
2018-07-26T05:47:35.230Z,34.4
2018-07-26T05:48:24.995Z,34.8
2018-07-26T05:49:14.798Z,35.1
2018-07-26T05:50:05.414Z,35.4
2018-07-26T05:50:55.401Z,35.8
2018-07-26T05:51:45.273Z,36.1
2018-07-26T05:52:35.614Z,36.5
2018-07-26T05:53:25.663Z,36.9
2018-07-26T05:54:15.763Z,37.3
2018-07-26T05:55:05.824Z,37.6
2018-07-26T05:55:55.601Z,37.9
2018-07-26T05:56:45.372Z,38.2
2018-07-26T05:57:35.718Z,38.5
2018-07-26T05:58:25.771Z,38.9
2018-07-26T05:59:16.104Z,39.3
2018-07-26T06:00:06.306Z,39.6
2018-07-26T06:00:56.233Z,40
2018-07-26T06:01:46.007Z,40.4
2018-07-26T06:02:36.364Z,40.8
2018-07-26T06:03:26.149Z,41.2
2018-07-26T06:04:16.536Z,41.6
2018-07-26T06:05:06.552Z,42
2018-07-26T06:05:56.334Z,42.4
2018-07-26T06:06:46.412Z,42.8
2018-07-26T06:07:36.744Z,43.2
2018-07-26T06:08:26.559Z,43.6
2018-07-26T06:09:16.877Z,43.9
2018-07-26T06:10:06.947Z,44.4
2018-07-26T06:10:56.996Z,44.8
2018-07-26T06:11:46.777Z,45.1
2018-07-26T06:12:36.844Z,45.6
2018-07-26T06:13:27.188Z,45.9
2018-07-26T06:14:17.250Z,46.4
2018-07-26T06:15:07.326Z,46.8
2018-07-26T06:15:57.401Z,47.3
2018-07-26T06:16:47.457Z,47.6
2018-07-26T06:17:37.526Z,47.9
2018-07-26T06:18:27.304Z,48.3
2018-07-26T06:19:17.414Z,48.6
2018-07-26T06:20:07.727Z,48.9
2018-07-26T06:20:57.791Z,49.3
2018-07-26T06:21:47.568Z,49.6
2018-07-26T06:22:37.639Z,50
2018-07-26T06:23:27.963Z,50.3
2018-07-26T06:24:18.088Z,50.7
2018-07-26T06:25:08.108Z,51
2018-07-26T06:25:57.871Z,51.3
2018-07-26T06:26:47.931Z,51.6
2018-07-26T06:27:38.013Z,51.9
2018-07-26T06:28:28.077Z,52.3
2018-07-26T06:29:18.417Z,53.1
2018-07-26T06:30:08.484Z,53.8
2018-07-26T06:30:58.540Z,52.6
2018-07-26T06:31:48.650Z,50.3
2018-07-26T06:32:38.657Z,47.4
2018-07-26T06:33:28.989Z,45.6
2018-07-26T06:34:18.529Z,44.6
2018-07-26T06:35:08.869Z,44.1
2018-07-26T06:35:58.944Z,43.7
2018-07-26T06:36:48.721Z,43.6
2018-07-26T06:37:39.080Z,43.7
2018-07-26T06:38:29.115Z,43.9
2018-07-26T06:39:19.211Z,44.3
2018-07-26T06:40:08.988Z,44.8
2018-07-26T06:40:59.306Z,45.4
2018-07-26T06:41:49.372Z,45.9
2018-07-26T06:42:39.163Z,46.2
2018-07-26T06:43:29.523Z,46.4
2018-07-26T06:44:19.557Z,46.8
2018-07-26T06:45:09.649Z,47.4
2018-07-26T06:45:59.441Z,47.9
2018-07-26T06:46:49.471Z,48.6
2018-07-26T06:47:39.841Z,49.3
2018-07-26T06:48:29.663Z,49.9
2018-07-26T06:49:19.666Z,50.6
2018-07-26T06:50:09.740Z,51.3
2018-07-26T06:51:00.103Z,51.9
2018-07-26T06:51:49.587Z,52.6
2018-07-26T06:52:39.658Z,53.2
2018-07-26T06:53:30.265Z,54.8
2018-07-26T06:54:20.331Z,55.3
2018-07-26T06:55:10.113Z,53.9
2018-07-26T06:56:00.473Z,52.1
2018-07-26T06:56:50.530Z,49.8
2018-07-26T06:57:40.041Z,48.3
2018-07-26T06:58:30.652Z,47.5
2018-07-26T06:59:20.446Z,47.3
2018-07-26T07:00:10.780Z,47.5
2018-07-26T07:01:00.656Z,48
2018-07-26T07:01:50.907Z,48.5
2018-07-26T07:02:40.998Z,49.2
2018-07-26T07:03:31.054Z,49.9
2018-07-26T07:04:21.109Z,50.8
2018-07-26T07:05:11.182Z,51.6
2018-07-26T07:06:01.219Z,52.5
2018-07-26T07:06:51.288Z,53.4
2018-07-26T07:07:41.076Z,55.4
2018-07-26T07:08:31.416Z,55.9
2018-07-26T07:09:21.229Z,55.9
2018-07-26T07:10:11.582Z,55.5
2018-07-26T07:11:01.625Z,54.3
2018-07-26T07:11:51.691Z,52.8
2018-07-26T07:13:31.825Z,52.2
2018-07-26T07:14:21.922Z,53
2018-07-26T07:15:11.944Z,53.8
2018-07-26T07:16:02.024Z,54.3
2018-07-26T07:16:52.063Z,54.4
2018-07-26T07:17:42.129Z,54.2
2018-07-26T07:18:31.918Z,54
2018-07-26T07:19:22.251Z,53.9
2018-07-26T07:20:12.330Z,54.1
2018-07-26T07:21:02.172Z,54.6
2018-07-26T07:21:52.446Z,55
2018-07-26T07:22:42.532Z,55.4
2018-07-26T07:23:32.319Z,55.6
2018-07-26T07:24:22.378Z,55.8
2018-07-26T07:25:12.704Z,55.8
2018-07-26T07:26:03.034Z,55.9
2018-07-26T07:26:52.836Z,56.2
2018-07-26T07:27:42.774Z,56.4
2018-07-26T07:28:32.484Z,56.7
2018-07-26T07:29:23.024Z,56.9
2018-07-26T07:30:12.825Z,57
2018-07-26T07:31:02.895Z,56.9
2018-07-26T07:31:53.240Z,56.9
2018-07-26T07:32:43.299Z,57.1
2018-07-26T07:33:33.411Z,57.4
2018-07-26T07:34:23.429Z,57.7
2018-07-26T07:35:13.471Z,57.9
2018-07-26T07:36:53.132Z,57.1
2018-07-26T07:37:43.674Z,56.4
2018-07-26T07:38:33.471Z,55.7
2018-07-26T07:39:23.543Z,55.4
2018-07-26T07:40:13.909Z,55.8
2018-07-26T07:41:03.920Z,56.4
2018-07-26T07:41:54.113Z,56.9
2018-07-26T07:42:43.795Z,57.4
2018-07-26T07:43:33.849Z,57.6
2018-07-26T07:44:24.183Z,57.6
2018-07-26T07:45:13.976Z,57.7
2018-07-26T07:46:04.054Z,57.9
2018-07-26T07:46:54.402Z,58.3
2018-07-26T07:47:45.031Z,58.7
2018-07-26T07:48:34.245Z,59.1
2018-07-26T07:49:24.593Z,59.4
2018-07-26T07:50:14.655Z,59.6
2018-07-26T07:51:04.719Z,59.7
2018-07-26T07:51:54.775Z,59.9
2018-07-26T07:52:44.888Z,60.1
2018-07-26T07:53:34.910Z,60.4
2018-07-26T07:54:24.971Z,60.8
2018-07-26T07:55:15.095Z,61.1
2018-07-26T07:56:05.134Z,61.4
2018-07-26T07:56:55.205Z,61.8
2018-07-26T07:57:44.970Z,61.9
2018-07-26T07:58:35.287Z,61.9
2018-07-26T07:59:25.187Z,61.9
2018-07-26T08:00:14.878Z,61.9
2018-07-26T08:01:05.484Z,62.1
2018-07-26T08:01:54.424Z,62.4
2018-07-26T08:02:45.624Z,62.7
2018-07-26T08:03:35.664Z,63
2018-07-26T08:04:25.180Z,63.2
2018-07-26T08:05:16.133Z,63.3
2018-07-26T08:06:05.645Z,63.4
2018-07-26T08:06:55.940Z,63.6
2018-07-26T08:07:45.991Z,63.8
2018-07-26T08:08:36.086Z,64
2018-07-26T08:09:25.860Z,64.2
2018-07-26T08:10:15.656Z,64.3
2018-07-26T08:11:05.974Z,64.2
2018-07-26T08:11:56.334Z,64
2018-07-26T08:12:46.115Z,63.9
2018-07-26T08:13:36.475Z,64
2018-07-26T08:14:26.258Z,64.1
2018-07-26T08:15:16.301Z,64.3
2018-07-26T08:16:06.635Z,64.4
2018-07-26T08:16:56.712Z,64.2
2018-07-26T08:17:46.761Z,63.8
2018-07-26T08:18:36.843Z,63.3
2018-07-26T08:19:26.644Z,62.8
2018-07-26T08:20:16.962Z,62.5
2018-07-26T08:21:06.756Z,62.4
2018-07-26T08:21:57.088Z,62.6
2018-07-26T08:22:46.893Z,62.9
2018-07-26T08:23:36.949Z,63.3
2018-07-26T08:24:27.046Z,63.6
2018-07-26T08:25:16.801Z,63.9
2018-07-26T08:26:07.442Z,64.1
2018-07-26T08:26:56.934Z,64.3
2018-07-26T08:27:47.556Z,64.4
2018-07-26T08:28:37.612Z,64.1
2018-07-26T08:29:27.675Z,63.9
2018-07-26T08:30:17.467Z,64.1
2018-07-26T08:31:07.813Z,64.2
2018-07-26T08:31:57.885Z,64.4
2018-07-26T08:32:47.656Z,64.7
2018-07-26T08:33:38.009Z,65
2018-07-26T08:34:27.587Z,65.2
2018-07-26T08:35:18.157Z,65.3
2018-07-26T08:36:08.204Z,65.4
2018-07-26T08:36:58.279Z,65.4
2018-07-26T08:37:48.329Z,65.5
2018-07-26T08:38:38.377Z,65.5
2018-07-26T08:39:28.449Z,65.6
2018-07-26T08:40:18.503Z,65.7
2018-07-26T08:41:09.100Z,65.6
2018-07-26T08:41:58.176Z,65.6
2018-07-26T08:42:48.139Z,65.6
2018-07-26T08:43:39.013Z,65.5
2018-07-26T08:44:28.830Z,65.4
2018-07-26T08:45:18.927Z,65.4
2018-07-26T08:46:08.952Z,65.6
2018-07-26T08:46:59.012Z,65.7
2018-07-26T08:47:49.086Z,65.9
2018-07-26T08:48:39.172Z,66.1
2018-07-26T08:49:29.225Z,66.3
2018-07-26T08:50:19.004Z,66.5
2018-07-26T08:51:09.350Z,66.8
2018-07-26T08:51:59.148Z,66.9
2018-07-26T08:52:49.479Z,67.1
2018-07-26T08:53:39.272Z,67.3
2018-07-26T08:54:29.325Z,67.4
2018-07-26T08:55:19.699Z,67.6
2018-07-26T08:56:09.454Z,67.6
2018-07-26T08:56:59.795Z,67
2018-07-26T08:57:49.602Z,66.1
2018-07-26T08:58:39.927Z,65.2
2018-07-26T08:59:29.994Z,64.9
2018-07-26T09:00:19.494Z,64.9
2018-07-26T09:01:10.543Z,64.6
2018-07-26T09:01:59.925Z,64.3
2018-07-26T09:02:50.098Z,64.3
2018-07-26T09:03:40.345Z,64.6
2018-07-26T09:04:30.404Z,64.8
2018-07-26T09:05:20.197Z,65.1
2018-07-26T09:06:10.266Z,65.1
2018-07-26T09:07:00.322Z,64.8
2018-07-26T09:07:50.655Z,64.3
2018-07-26T09:08:40.501Z,64
2018-07-26T09:09:30.793Z,63.5
2018-07-26T09:10:20.849Z,62.9
2018-07-26T09:11:10.647Z,62.2
2018-07-26T09:12:00.713Z,61.6
2018-07-26T09:12:51.047Z,60.9
2018-07-26T09:13:41.308Z,60.3
2018-07-26T09:14:31.169Z,59.9
2018-07-26T09:15:21.241Z,59.4
2018-07-26T09:16:11.294Z,58.9
2018-07-26T09:17:01.096Z,58.3
2018-07-26T09:18:41.497Z,57.2
2018-07-26T09:19:31.642Z,56.6
2018-07-26T09:20:21.610Z,56.2
2018-07-26T09:21:11.215Z,55.9
2018-07-26T09:22:01.736Z,55.7
2018-07-26T09:22:51.847Z,55.4
2018-07-26T09:23:41.865Z,55.7
2018-07-26T09:24:32.410Z,56.6
2018-07-26T09:25:22.022Z,58.2
2018-07-26T09:26:12.232Z,60.8
2018-07-26T09:27:02.131Z,62.1
2018-07-26T09:27:52.188Z,62.6
2018-07-26T09:28:42.255Z,62.5
2018-07-26T09:29:32.324Z,62
2018-07-26T09:30:22.390Z,61.6
2018-07-26T09:31:12.453Z,61.6
2018-07-26T09:32:02.543Z,62.4
2018-07-26T09:32:52.695Z,63.5
2018-07-26T09:33:42.667Z,64.5
2018-07-26T09:34:32.732Z,65.1
2018-07-26T09:35:22.939Z,65.4
2018-07-26T09:36:12.862Z,65.4
2018-07-26T09:37:02.918Z,65.6
2018-07-26T09:37:52.707Z,65.9
2018-07-26T09:38:43.032Z,66.3
2018-07-26T09:39:33.101Z,66.9
2018-07-26T09:40:22.929Z,67.4
2018-07-26T09:41:13.659Z,67.8
2018-07-26T09:42:03.316Z,68
2018-07-26T09:42:53.091Z,68.2
2018-07-26T09:43:43.426Z,68.4
2018-07-26T09:44:33.230Z,68.6
2018-07-26T09:45:23.565Z,68.9
2018-07-26T09:46:13.617Z,69.1
2018-07-26T09:47:03.424Z,69.4
2018-07-26T09:47:53.772Z,69.5
2018-07-26T09:48:43.838Z,69.6
2018-07-26T09:49:33.642Z,69.7
2018-07-26T09:50:23.960Z,69.8
2018-07-26T09:51:13.743Z,69.9
2018-07-26T09:52:04.097Z,70
2018-07-26T09:52:53.877Z,70.1
2018-07-26T09:53:44.203Z,70.3
2018-07-26T09:54:34.259Z,70.4
2018-07-26T09:55:24.338Z,70.5
2018-07-26T09:56:14.413Z,70.7
2018-07-26T09:57:03.940Z,70.8
2018-07-26T09:57:54.523Z,71
2018-07-26T09:58:43.763Z,71.1
2018-07-26T09:59:34.661Z,71.3
2018-07-26T10:00:24.734Z,71.5
2018-07-26T10:01:14.563Z,71.6
2018-07-26T10:02:04.851Z,71.8
2018-07-26T10:02:54.668Z,71.9
2018-07-26T10:03:44.983Z,71.9
2018-07-26T10:04:34.493Z,72.1
2018-07-26T10:05:25.128Z,72.1
2018-07-26T10:06:14.900Z,72.3
2018-07-26T10:07:05.238Z,72.3
2018-07-26T10:07:54.471Z,72.4
2018-07-26T10:08:45.108Z,72.4
2018-07-26T10:09:35.435Z,72.5
2018-07-26T10:10:25.266Z,72.6
2018-07-26T10:11:15.576Z,72.8
2018-07-26T10:12:05.638Z,72.9
2018-07-26T10:12:55.711Z,73.1
2018-07-26T10:13:45.764Z,73.3
2018-07-26T10:14:35.548Z,73.4
2018-07-26T10:15:25.904Z,73.5
2018-07-26T10:16:15.966Z,73.6
2018-07-26T10:17:06.051Z,73.6
2018-07-26T10:17:56.092Z,73.8
2018-07-26T10:18:46.156Z,73.9
2018-07-26T10:19:36.233Z,74
2018-07-26T10:20:25.723Z,74.2
2018-07-26T10:21:16.386Z,74.2
2018-07-26T10:22:06.423Z,73.4
2018-07-26T10:22:56.213Z,72.4
2018-07-26T10:23:46.607Z,71.6
2018-07-26T10:24:36.622Z,71.1
2018-07-26T10:25:26.691Z,70.9
2018-07-26T10:26:16.750Z,70.6
2018-07-26T10:27:06.812Z,69.9
2018-07-26T10:27:56.822Z,69.2
2018-07-26T10:28:46.655Z,68.6
2018-07-26T10:29:36.720Z,68.4
2018-07-26T10:30:27.074Z,68.6
2018-07-26T10:31:17.190Z,69.1
2018-07-26T10:32:07.198Z,69.6
2018-07-26T10:32:57.270Z,70.1
2018-07-26T10:33:47.060Z,70.3
2018-07-26T10:34:37.381Z,70.4
2018-07-26T10:35:27.444Z,70.5
2018-07-26T10:36:16.996Z,70.6
2018-07-26T10:37:07.594Z,70.8
2018-07-26T10:37:57.647Z,71
2018-07-26T10:38:47.564Z,71.3
2018-07-26T10:39:37.764Z,71.4
2018-07-26T10:40:27.827Z,71.4
2018-07-26T10:41:17.904Z,71
2018-07-26T10:42:07.990Z,70.6
2018-07-26T10:42:58.026Z,70.4
2018-07-26T10:43:47.815Z,70.4
2018-07-26T10:44:38.520Z,70.6
2018-07-26T10:45:28.229Z,70.9
2018-07-26T10:46:18.295Z,71.1
2018-07-26T10:47:08.356Z,71.3
2018-07-26T10:47:58.438Z,71.3
2018-07-26T10:48:48.505Z,70.7
2018-07-26T10:49:38.326Z,69.6
2018-07-26T10:50:28.348Z,68.5
2018-07-26T10:51:18.400Z,67.6
2018-07-26T10:52:08.745Z,66.9
2018-07-26T10:52:58.543Z,66.3
2018-07-26T10:53:48.881Z,65.8
2018-07-26T10:54:38.935Z,65.3
2018-07-26T10:55:28.745Z,64.6
2018-07-26T10:56:19.069Z,64
2018-07-26T10:57:09.136Z,63.7
2018-07-26T10:57:58.931Z,63.9
2018-07-26T10:58:49.287Z,63.9
2018-07-26T10:59:39.350Z,63.8
2018-07-26T11:00:29.140Z,63.5
2018-07-26T11:01:19.172Z,63.1
2018-07-26T11:02:09.530Z,62.4
2018-07-26T11:02:59.592Z,61.8
2018-07-26T11:03:49.713Z,61.4
2018-07-26T11:04:39.717Z,61.3
2018-07-26T11:05:29.495Z,60.8
2018-07-26T11:06:19.587Z,60.5
2018-07-26T11:07:09.935Z,60.7
2018-07-26T11:07:59.964Z,61.6
2018-07-26T11:08:49.498Z,62.9
2018-07-26T11:09:40.407Z,64.3
2018-07-26T11:10:29.901Z,64.6
2018-07-26T11:11:19.686Z,63.9
2018-07-26T11:12:10.088Z,62.6
2018-07-26T11:12:59.802Z,61.1
2018-07-26T11:13:50.471Z,59.6
2018-07-26T11:14:40.227Z,58.5
2018-07-26T11:15:30.626Z,57.7
2018-07-26T11:16:20.636Z,57.1
2018-07-26T11:17:10.692Z,56.7
2018-07-26T11:18:00.757Z,56.4
2018-07-26T11:18:50.846Z,56.3
2018-07-26T11:19:40.896Z,56.4
2018-07-26T11:20:30.953Z,56.7
2018-07-26T11:21:20.997Z,56.8
2018-07-26T11:22:10.793Z,56.9
2018-07-26T11:23:01.158Z,56.9
2018-07-26T11:23:51.214Z,57.3
2018-07-26T11:24:40.740Z,58
2018-07-26T11:25:31.550Z,59